Startpagina
METAR-TAF:

METAR-TAF

Vliegvelden :

Gibraltar Airport

Gibraltar, Gibraltar

breedte: 36-09N, lengte: 005-21W, hoogte: 5 m

Actueel weer

Dit bericht is 23 minuten geleden gemaakt, om 16:05 UTC
Wind 6 kt uit het noordoosten
Temperatuur 18°C
Vochtigheid 88%
Druk 1015 hPa
Zicht: 7000 m
Weinig wolken op 1200 ft
Gebroken wolken op 1500 ft
Heiigheid

METAR: LXGB 141605Z 05006KT 7000 HZ FEW012 BKN015 18/16 Q1015 WHT TEMPO SCT014 GRN

Tijdstip: 17:28 (16:28 UTC)

Verwachting

Dit bericht is 3 uur en het 0 minuten geleden gemaakt, om 13:28 UTC
Verwachting geldig van 14 om 15 UTC tot 14 om 23 UTC
Wind 13 kt uit het oosten
Zicht: 9000 m
Weinig wolken op 1100 ft
Gebroken wolken op 1500 ft
Heiigheid
Tijdelijke
van 14 om 15 UTC tot 14 om 23 UTC
Zicht: 7000 m
Verspreide wolken op 1100 ft
Gebroken wolken op 1500 ft
Kans 30% :
Tijdelijke
van 14 om 15 UTC tot 14 om 20 UTC
Weinig wolken op 1500 ft

TAF: LXGB 141328Z 1415/1423 09013KT 9000 HZ FEW011 BKN015 TEMPO 1415/1423 7000 SCT011 BKN015 PROB30 TEMPO 1415/1420 FEW015

Waarnemingen en weersverwachtingen van meer dan 4000 vliegvelden (METAR en TAF).

De beschikbare stations zijn de gele en rode punten op de kaart.

Ga met uw muis naar het station om de naam te zien.

Klik dan om waarnemingen en weersverwachtingen te zien.

kaart wijzigen: klik op de groene knoppen met een zwart kruis om in te zoomen, op de groene knop met een streepje om uit te zoomen of op de groene pijlen voor aangrenzende kaarten.


METAR-TAF: